Time;durP1;ratioP1;P1;durP2;ratioP2;P2;SDS_P1;SDS_P2;PMS_P1;PMS_P2;Temp;Humidity;BMP_temperature;BMP_pressure;BME280_temperature;BME280_humidity;BME280_pressure;Samples;Min_cycle;Max_cycle;Signal;HPM_P1;HPM_P2
2021/07/27 00:02:01;;;;;;;24.50;10.82;;;;;;;24.30;58.00;101148.41;1745947;80;20963;-65
2021/07/27 00:04:29;;;;;;;18.98;10.93;;;;;;;24.26;58.43;101144.22;1750985;79;21520;-66
2021/07/27 00:06:58;;;;;;;21.25;10.78;;;;;;;24.21;58.83;101144.23;1748381;79;20888;-66
2021/07/27 00:09:26;;;;;;;16.67;10.60;;;;;;;24.16;59.31;101152.84;1749278;79;20904;-65
2021/07/27 00:11:54;;;;;;;12.93;10.08;;;;;;;24.11;59.88;101153.76;1754288;79;20938;-63
2021/07/27 00:14:21;;;;;;;22.00;10.15;;;;;;;24.07;60.02;101149.55;1728240;80;21548;-65
2021/07/27 00:16:48;;;;;;;29.63;10.03;;;;;;;24.02;60.30;101143.98;1745223;80;22065;-65
2021/07/27 00:19:15;;;;;;;27.90;10.50;;;;;;;23.98;60.93;101153.40;1739292;81;20905;-65
2021/07/27 00:21:42;;;;;;;30.82;10.60;;;;;;;23.96;61.18;101148.55;1734387;80;21398;-65
2021/07/27 00:24:10;;;;;;;31.07;10.48;;;;;;;23.94;61.34;101147.83;1738752;80;21717;-65
2021/07/27 00:26:38;;;;;;;30.62;11.22;;;;;;;23.94;61.61;101147.83;1746938;80;20944;-65
2021/07/27 00:29:05;;;;;;;29.37;10.95;;;;;;;23.93;61.80;101146.09;1741984;80;21141;-65
2021/07/27 00:31:33;;;;;;;19.75;11.10;;;;;;;23.91;61.98;101142.61;1757564;79;20907;-65
2021/07/27 00:34:01;;;;;;;18.60;10.60;;;;;;;23.88;62.13;101145.63;1755500;80;20940;-65
2021/07/27 00:36:28;;;;;;;26.80;10.80;;;;;;;23.83;62.40;101143.78;1753569;79;20938;-65
2021/07/27 00:38:56;;;;;;;26.62;10.78;;;;;;;23.80;62.79;101145.42;1741502;80;20881;-65
2021/07/27 00:41:23;;;;;;;31.55;11.05;;;;;;;23.79;63.36;101141.80;1729950;80;21041;-64
2021/07/27 00:43:51;;;;;;;36.48;12.98;;;;;;;23.80;63.54;101139.95;1744829;80;20932;-64
2021/07/27 00:46:18;;;;;;;41.18;12.93;;;;;;;23.76;63.73;101140.70;1742516;80;20972;-65
2021/07/27 00:48:45;;;;;;;54.67;12.63;;;;;;;23.73;63.83;101137.70;1764257;79;20916;-65
2021/07/27 00:51:12;;;;;;;50.23;12.90;;;;;;;23.68;64.00;101134.50;1750045;79;21444;-65
2021/07/27 00:53:40;;;;;;;43.68;12.50;;;;;;;23.63;64.27;101131.30;1717221;80;21400;-65
2021/07/27 00:56:07;;;;;;;34.18;12.18;;;;;;;23.59;64.47;101125.72;1731480;80;21373;-65
2021/07/27 00:58:34;;;;;;;33.80;12.10;;;;;;;23.54;64.58;101132.05;1739732;80;20959;-65
2021/07/27 01:01:01;;;;;;;28.25;11.50;;;;;;;23.46;64.73;101128.11;1741243;80;20932;-64
2021/07/27 01:03:29;;;;;;;28.57;12.63;;;;;;;23.42;65.31;101129.37;1737521;80;20958;-65
2021/07/27 01:05:56;;;;;;;33.48;12.47;;;;;;;23.38;65.80;101120.17;1736565;81;21066;-65
2021/07/27 01:08:23;;;;;;;29.67;13.08;;;;;;;23.34;66.17;101130.52;1739394;81;21409;-65
2021/07/27 01:10:53;;;;;;;30.57;12.23;;;;;;;23.32;66.41;101135.22;1746859;79;21320;-66
2021/07/27 01:13:20;;;;;;;28.70;12.30;;;;;;;23.28;66.62;101136.00;1735636;80;20915;-69
2021/07/27 01:15:47;;;;;;;47.88;13.78;;;;;;;23.23;66.92;101132.75;1740474;80;21505;-69
2021/07/27 01:18:22;;;;;;;29.30;12.80;;;;;;;23.15;67.33;101137.97;1739880;80;21598;-68
2021/07/27 01:39:46;;;;;;;40.17;14.18;;;;;;;22.72;71.11;101120.48;1727031;81;20971;-69
2021/07/27 01:42:14;;;;;;;51.05;13.65;;;;;;;22.73;71.57;101127.70;1728443;81;20955;-69
2021/07/27 01:44:45;;;;;;;51.08;13.75;;;;;;;22.72;71.83;101130.05;1725942;81;21119;-68
2021/07/27 01:47:20;;;;;;;36.70;13.83;;;;;;;22.74;72.16;101126.70;1717322;81;21456;-68
2021/07/27 01:49:49;;;;;;;37.13;13.13;;;;;;;22.75;72.31;101128.44;1730668;81;20912;-68
2021/07/27 01:52:17;;;;;;;38.08;13.32;;;;;;;22.74;72.50;101130.80;1731337;81;20968;-68
2021/07/27 01:54:54;;;;;;;28.15;13.10;;;;;;;22.73;72.66;101134.53;1726852;81;21312;-68
2021/07/27 01:57:29;;;;;;;30.57;13.05;;;;;;;22.71;72.92;101125.59;1725348;81;21792;-68
2021/07/27 02:00:03;;;;;;;28.77;13.48;;;;;;;22.67;73.26;101128.20;1712863;81;21496;-68
2021/07/27 02:02:32;;;;;;;32.93;14.13;;;;;;;22.65;73.62;101129.67;1720064;81;20964;-67
2021/07/27 02:04:59;;;;;;;28.55;13.50;;;;;;;22.67;73.77;101128.20;1721095;81;21924;-67
2021/07/27 02:07:26;;;;;;;25.48;13.90;;;;;;;22.65;73.63;101123.33;1731953;81;20940;-67
2021/07/27 02:10:00;;;;;;;25.10;12.70;;;;;;;22.58;73.92;101126.56;1716821;81;21097;-68
2021/07/27 02:12:24;;;;;;;40.05;13.95;;;;;;;22.50;74.40;101121.33;1672475;84;21408;-68
2021/07/27 02:15:04;;;;;;;26.07;13.15;;;;;;;22.42;74.83;101122.80;1737929;81;21425;-67
2021/07/27 02:17:34;;;;;;;42.10;12.80;;;;;;;22.32;75.10;101124.02;1723825;82;21282;-68
2021/07/27 02:20:02;;;;;;;32.63;13.60;;;;;;;22.25;75.63;101128.23;1724415;81;21481;-68
2021/07/27 02:22:34;;;;;;;28.23;13.13;;;;;;;22.20;75.97;101126.85;1724191;81;21077;-69
2021/07/27 02:25:02;;;;;;;35.50;13.25;;;;;;;22.16;76.35;101124.84;1732450;81;20918;-68
2021/07/27 02:27:29;;;;;;;41.15;14.03;;;;;;;22.13;76.63;101120.52;1728839;80;21487;-68
2021/07/27 02:30:00;;;;;;;22.30;13.58;;;;;;;22.12;76.61;101121.51;1726027;81;21390;-68
2021/07/27 02:32:27;;;;;;;40.45;15.05;;;;;;;22.11;76.78;101125.71;1721250;81;20928;-68
2021/07/27 02:34:55;;;;;;;31.80;13.65;;;;;;;22.06;76.84;101126.58;1725157;81;21216;-68
2021/07/27 02:37:21;;;;;;;47.95;14.33;;;;;;;22.03;77.23;101123.09;1726712;81;20917;-67
2021/07/27 02:39:49;;;;;;;24.98;13.00;;;;;;;22.03;77.22;101128.55;1727589;81;21440;-67
2021/07/27 02:42:18;;;;;;;30.23;13.22;;;;;;;22.03;77.29;101132.65;1724722;81;20909;-66
2021/07/27 02:44:45;;;;;;;32.42;13.18;;;;;;;22.00;77.34;101124.70;1727366;81;20961;-68
2021/07/27 02:47:13;;;;;;;38.13;14.23;;;;;;;21.99;77.56;101121.56;1732123;81;21383;-68
2021/07/27 02:49:40;;;;;;;32.98;13.85;;;;;;;21.98;77.73;101123.07;1730022;81;20893;-67
2021/07/27 02:52:07;;;;;;;36.77;13.93;;;;;;;21.94;77.91;101123.80;1732361;81;21404;-69
2021/07/27 02:54:37;;;;;;;35.35;13.95;;;;;;;21.92;78.14;101125.77;1723807;81;20928;-68
2021/07/27 02:57:04;;;;;;;38.85;13.85;;;;;;;21.91;78.69;101123.18;1721955;81;20972;-67
2021/07/27 02:59:31;;;;;;;50.38;14.78;;;;;;;21.92;78.94;101128.50;1727209;81;21105;-65
2021/07/27 03:01:59;;;;;;;39.60;14.87;;;;;;;21.94;79.15;101129.25;1729756;81;21524;-65
2021/07/27 03:04:26;;;;;;;35.75;15.10;;;;;;;21.99;79.18;101128.39;1723404;81;21497;-67
2021/07/27 03:06:55;;;;;;;44.98;15.15;;;;;;;22.07;79.05;101129.67;1731526;81;21262;-68
2021/07/27 03:09:31;;;;;;;43.42;15.30;;;;;;;22.13;79.03;101133.28;1724368;81;20921;-66
2021/07/27 03:11:54;;;;;;;38.58;14.78;;;;;;;22.18;78.93;101136.52;1723014;81;21162;-66
2021/07/27 03:14:21;;;;;;;32.17;13.70;;;;;;;22.23;78.86;101143.88;1717573;81;20900;-67
2021/07/27 03:16:48;;;;;;;36.58;14.13;;;;;;;22.32;78.69;101140.41;1738332;81;20928;-66
2021/07/27 03:19:17;;;;;;;46.08;15.25;;;;;;;22.42;78.49;101150.11;1724106;81;20940;-66
2021/07/27 03:21:44;;;;;;;44.40;16.75;;;;;;;22.52;78.19;101150.28;1727440;81;20967;-66
2021/07/27 03:24:11;;;;;;;50.78;17.23;;;;;;;22.61;77.64;101153.63;1726769;81;21140;-66
2021/07/27 03:26:38;;;;;;;53.28;17.42;;;;;;;22.70;77.09;101151.17;1734053;81;20874;-65
2021/07/27 03:29:07;;;;;;;50.75;17.67;;;;;;;22.74;76.69;101162.23;1724521;81;20888;-66
2021/07/27 03:31:34;;;;;;;35.17;16.93;;;;;;;22.76;76.43;101153.41;1730036;81;21402;-65
2021/07/27 03:34:01;;;;;;;43.92;16.25;;;;;;;22.81;76.26;101156.63;1723368;82;20924;-68
2021/07/27 03:36:30;;;;;;;48.73;15.58;;;;;;;22.85;76.08;101155.38;1728043;81;21457;-68
2021/07/27 03:38:58;;;;;;;37.05;15.45;;;;;;;22.93;75.97;101158.01;1717858;81;20905;-68
2021/07/27 03:41:25;;;;;;;34.08;14.63;;;;;;;22.98;75.81;101153.88;1730781;81;21519;-67
2021/07/27 03:43:53;;;;;;;35.43;15.53;;;;;;;23.11;75.47;101156.52;1727528;81;21263;-67
2021/07/27 03:46:20;;;;;;;30.12;15.55;;;;;;;23.20;75.32;101152.64;1723369;81;21351;-67
2021/07/27 03:48:47;;;;;;;29.48;15.18;;;;;;;23.29;74.89;101162.35;1728653;81;21796;-67
2021/07/27 03:51:16;;;;;;;42.48;15.88;;;;;;;23.36;74.62;101164.09;1731243;81;20861;-67
2021/07/27 03:53:43;;;;;;;40.85;15.03;;;;;;;23.43;74.28;101165.78;1719753;81;20956;-67
2021/07/27 03:56:12;;;;;;;35.65;14.80;;;;;;;23.49;74.01;101158.94;1724138;82;21462;-66
2021/07/27 03:58:42;;;;;;;26.93;14.93;;;;;;;23.57;73.86;101161.92;1733290;81;20980;-66
2021/07/27 04:01:08;;;;;;;34.92;14.07;;;;;;;23.66;73.72;101163.02;1728411;81;21829;-66
2021/07/27 04:03:36;;;;;;;40.08;15.35;;;;;;;23.79;73.53;101160.11;1730929;81;20904;-68
2021/07/27 04:06:03;;;;;;;31.80;15.80;;;;;;;23.92;73.15;101160.78;1730481;81;20955;-66
2021/07/27 04:08:30;;;;;;;32.73;15.05;;;;;;;24.02;72.74;101164.52;1723481;82;20951;-66
2021/07/27 04:11:02;;;;;;;39.90;15.83;;;;;;;24.15;72.29;101165.70;1722567;81;20994;-67
2021/07/27 04:13:31;;;;;;;31.52;15.20;;;;;;;24.26;71.90;101166.13;1731515;81;21426;-67
2021/07/27 04:16:02;;;;;;;37.50;18.62;;;;;;;24.36;71.58;101162.58;1731591;81;20909;-66
2021/07/27 04:18:29;;;;;;;37.30;16.55;;;;;;;24.47;71.35;101159.78;1724718;81;20931;-66
2021/07/27 04:21:02;;;;;;;34.92;14.35;;;;;;;24.60;70.99;101167.27;1726005;81;20969;-67
2021/07/27 04:23:30;;;;;;;48.92;14.43;;;;;;;24.74;70.73;101162.44;1727416;81;20983;-66
2021/07/27 04:25:59;;;;;;;28.35;15.35;;;;;;;24.89;70.42;101165.22;1723846;81;22470;-66
2021/07/27 04:28:27;;;;;;;42.65;15.15;;;;;;;25.03;70.15;101167.20;1722886;81;20896;-66
2021/07/27 04:30:54;;;;;;;43.25;14.68;;;;;;;25.18;69.77;101166.31;1708638;82;21764;-66
2021/07/27 04:33:34;;;;;;;37.88;16.62;;;;;;;25.31;69.45;101160.56;1722628;81;20974;-64
2021/07/27 04:36:01;;;;;;;45.52;17.48;;;;;;;25.44;69.16;101168.56;1726844;82;21429;-63
2021/07/27 04:38:28;;;;;;;42.30;15.43;;;;;;;25.58;68.68;101164.58;1736881;81;21604;-63
2021/07/27 04:40:55;;;;;;;36.28;14.75;;;;;;;25.69;68.60;101164.42;1734584;80;20984;-62
2021/07/27 04:43:24;;;;;;;32.65;13.58;;;;;;;25.83;68.36;101159.53;1704704;82;20880;-62
2021/07/27 04:45:51;;;;;;;32.98;12.80;;;;;;;25.98;68.26;101156.72;1754955;80;20942;-62
2021/07/27 04:48:20;;;;;;;32.50;12.28;;;;;;;26.15;68.01;101156.97;1751618;80;21413;-62
2021/07/27 04:50:47;;;;;;;41.77;13.13;;;;;;;26.31;67.64;101153.16;1733320;80;21137;-63
2021/07/27 04:53:15;;;;;;;47.48;12.98;;;;;;;26.46;67.28;101156.30;1687221;82;20896;-63
2021/07/27 04:55:42;;;;;;;39.88;14.10;;;;;;;26.63;66.93;101157.05;1735655;80;20878;-62
2021/07/27 04:58:09;;;;;;;38.05;13.45;;;;;;;26.81;66.47;101161.27;1740524;81;20864;-62
2021/07/27 05:00:36;;;;;;;38.73;14.83;;;;;;;26.94;66.06;101158.20;1748203;80;20919;-63
2021/07/27 05:03:04;;;;;;;32.30;12.20;;;;;;;27.08;65.90;101168.72;1745628;80;21853;-65
2021/07/27 05:05:32;;;;;;;38.58;12.78;;;;;;;27.20;65.90;101158.38;1747765;80;21377;-62
2021/07/27 05:07:59;;;;;;;38.23;12.95;;;;;;;27.35;65.84;101163.34;1748531;80;20884;-64
2021/07/27 05:10:26;;;;;;;25.02;11.20;;;;;;;27.49;65.63;101157.81;1753167;80;20972;-64
2021/07/27 05:12:54;;;;;;;27.55;11.78;;;;;;;27.61;65.58;101160.74;1750992;80;20884;-64
2021/07/27 05:15:21;;;;;;;23.98;10.30;;;;;;;27.73;65.69;101163.60;1731936;80;21402;-64
2021/07/27 05:18:01;;;;;;;28.00;11.90;;;;;;;27.81;65.93;101159.22;1737992;80;20944;-64
2021/07/27 05:20:28;;;;;;;25.30;11.50;;;;;;;27.88;65.84;101167.20;1747730;80;20950;-64
2021/07/27 05:22:55;;;;;;;28.15;12.10;;;;;;;27.92;66.09;101168.61;1745770;80;20982;-64
2021/07/27 05:25:22;;;;;;;30.60;11.93;;;;;;;28.02;66.27;101168.02;1744714;80;20918;-64
2021/07/27 05:27:49;;;;;;;24.32;11.18;;;;;;;28.13;66.27;101167.41;1751276;80;21421;-64
2021/07/27 05:30:16;;;;;;;27.75;10.50;;;;;;;28.24;66.35;101165.83;1747792;80;20934;-64
2021/07/27 05:32:46;;;;;;;24.07;10.63;;;;;;;28.38;66.27;101167.62;1732553;80;20880;-64
2021/07/27 05:35:15;;;;;;;32.73;10.55;;;;;;;28.47;66.28;101165.30;1721747;81;20953;-66
2021/07/27 05:37:44;;;;;;;17.67;9.35;;;;;;;28.57;66.52;101166.57;1721456;81;20916;-63
2021/07/27 05:40:12;;;;;;;20.52;10.18;;;;;;;28.72;66.35;101164.07;1730552;81;21772;-65
2021/07/27 05:42:41;;;;;;;17.05;10.88;;;;;;;28.87;66.03;101173.51;1728850;81;20923;-65
2021/07/27 05:45:10;;;;;;;20.35;10.78;;;;;;;28.95;65.80;101169.05;1730616;81;20924;-64
2021/07/27 05:47:37;;;;;;;20.72;10.63;;;;;;;29.00;65.90;101176.31;1730502;81;21563;-64
2021/07/27 05:50:08;;;;;;;26.30;12.13;;;;;;;29.06;65.55;101172.87;1722019;81;20888;-64
2021/07/27 05:52:34;;;;;;;22.02;11.10;;;;;;;29.11;65.71;101182.93;1728878;81;21267;-64
2021/07/27 05:55:02;;;;;;;19.62;10.50;;;;;;;29.16;65.60;101177.77;1730278;81;21401;-64
2021/07/27 05:57:29;;;;;;;25.20;9.90;;;;;;;29.23;65.57;101182.61;1726574;81;21417;-64
2021/07/27 05:59:56;;;;;;;20.12;11.55;;;;;;;29.33;65.55;101184.73;1724741;81;20988;-64
2021/07/27 06:02:23;;;;;;;23.65;10.85;;;;;;;29.38;65.41;101192.00;1725722;81;20963;-64
2021/07/27 06:04:51;;;;;;;24.77;10.88;;;;;;;29.39;65.25;101190.96;1723848;81;20934;-64
2021/07/27 06:07:18;;;;;;;19.85;10.25;;;;;;;29.29;65.62;101184.70;1726839;81;21752;-65
2021/07/27 06:09:45;;;;;;;23.67;10.28;;;;;;;29.27;65.98;101191.78;1731667;81;21042;-64
2021/07/27 06:12:12;;;;;;;21.50;9.30;;;;;;;29.35;65.95;101189.58;1729580;81;21048;-64
2021/07/27 06:14:40;;;;;;;29.07;10.63;;;;;;;29.42;65.75;101190.66;1724402;81;21038;-65
2021/07/27 06:17:14;;;;;;;23.25;10.03;;;;;;;29.49;65.64;101199.64;1726241;81;21339;-64
2021/07/27 06:19:41;;;;;;;;;;;;;;;29.48;65.59;101196.53;1741866;81;21406;-63
2021/07/27 06:22:09;;;;;;;24.92;10.10;;;;;;;29.43;65.87;101200.67;1725484;81;20138;-64
2021/07/27 06:24:37;;;;;;;22.40;11.15;;;;;;;29.41;66.17;101205.50;1722523;81;20982;-64
2021/07/27 06:27:15;;;;;;;22.73;9.25;;;;;;;29.47;66.23;101200.33;1726328;81;20879;-63
2021/07/27 06:29:43;;;;;;;17.73;8.75;;;;;;;29.50;66.14;101205.52;1724225;82;21536;-69
2021/07/27 06:32:12;;;;;;;31.27;10.28;;;;;;;29.53;66.12;101206.59;1710942;82;20916;-69
2021/07/27 06:34:41;;;;;;;29.40;9.30;;;;;;;29.63;66.17;101205.05;1723792;81;21435;-69
2021/07/27 06:37:08;;;;;;;20.43;9.13;;;;;;;29.79;65.67;101211.12;1719131;81;20876;-70
2021/07/27 06:39:35;;;;;;;24.50;8.68;;;;;;;29.89;65.10;101204.91;1724518;81;21453;-69
2021/07/27 06:42:02;;;;;;;20.70;8.80;;;;;;;29.97;63.74;101204.94;1723718;81;21522;-69
2021/07/27 06:44:30;;;;;;;20.48;8.00;;;;;;;30.08;62.04;101198.75;1727544;81;20924;-68
2021/07/27 06:46:57;;;;;;;32.23;8.75;;;;;;;30.20;61.49;101199.27;1728080;81;21452;-69
2021/07/27 06:49:24;;;;;;;13.38;7.80;;;;;;;30.35;59.89;101201.69;1717681;82;21342;-68
2021/07/27 06:51:51;;;;;;;21.65;8.30;;;;;;;30.49;58.43;101202.00;1724867;81;20937;-68
2021/07/27 06:54:20;;;;;;;18.00;7.97;;;;;;;30.57;57.90;101194.56;1684379;83;21195;-68
2021/07/27 06:56:47;;;;;;;19.60;8.60;;;;;;;30.64;57.56;101194.77;1723395;81;20908;-68
2021/07/27 07:01:46;;;;;;;13.62;7.40;;;;;;;30.80;56.32;101199.38;1724594;81;20896;-69
2021/07/27 07:04:13;;;;;;;12.73;7.37;;;;;;;30.88;54.98;101199.89;1722164;81;20983;-69
2021/07/27 07:06:41;;;;;;;16.25;8.70;;;;;;;30.94;55.34;101201.94;1724967;81;21097;-69
2021/07/27 07:09:13;;;;;;;17.65;8.45;;;;;;;30.97;54.81;101196.58;1681684;83;20937;-69
2021/07/27 07:11:38;;;;;;;21.12;8.53;;;;;;;31.01;55.96;101201.59;1650929;84;20986;-69
2021/07/27 07:14:06;;;;;;;17.02;8.28;;;;;;;31.04;56.46;101205.03;1728870;81;21656;-68
2021/07/27 07:16:34;;;;;;;15.80;7.70;;;;;;;31.06;55.57;101206.59;1720422;81;21536;-68
2021/07/27 07:19:02;;;;;;;13.83;7.40;;;;;;;31.12;53.98;101212.80;1723575;81;21092;-68
2021/07/27 07:21:29;;;;;;;18.60;7.72;;;;;;;31.16;53.13;101214.16;1731808;81;20967;-68
2021/07/27 07:23:57;;;;;;;17.70;7.60;;;;;;;31.15;53.03;101211.05;1726669;81;20917;-71
2021/07/27 07:28:59;;;;;;;13.30;8.08;;;;;;;31.21;52.54;101219.20;1728525;81;20956;-70
2021/07/27 07:31:28;;;;;;;18.95;11.78;;;;;;;31.25;52.80;101212.77;1727006;81;21802;-69
2021/07/27 07:33:56;;;;;;;13.93;8.43;;;;;;;31.30;52.97;101214.49;1725576;81;20927;-69
2021/07/27 07:36:25;;;;;;;18.10;8.70;;;;;;;31.35;53.10;101213.42;1732293;80;20952;-68
2021/07/27 07:38:52;;;;;;;20.82;8.38;;;;;;;31.41;53.44;101212.69;1731326;80;20929;-69
2021/07/27 07:41:19;;;;;;;17.50;8.48;;;;;;;31.48;53.13;101214.73;1734126;80;21309;-69
2021/07/27 07:43:49;;;;;;;12.47;8.80;;;;;;;31.52;52.37;101214.73;1731003;81;21546;-69
2021/07/27 07:46:15;;;;;;;17.07;8.55;;;;;;;31.57;52.80;101209.50;1724651;80;21584;-67
2021/07/27 07:48:43;;;;;;;18.50;8.65;;;;;;;31.57;53.29;101206.73;1729362;80;20966;-70
2021/07/27 07:51:10;;;;;;;18.17;8.43;;;;;;;31.54;53.06;101212.09;1726057;80;21437;-70
2021/07/27 07:53:38;;;;;;;15.90;8.53;;;;;;;31.57;52.68;101212.27;1727526;80;21347;-68
2021/07/27 07:56:12;;;;;;;16.00;9.03;;;;;;;31.62;53.12;101215.35;1732508;80;21329;-69
2021/07/27 07:58:40;;;;;;;17.50;8.30;;;;;;;31.67;52.71;101210.66;1725103;80;21353;-69
2021/07/27 08:01:10;;;;;;;17.27;8.83;;;;;;;31.69;51.87;101213.56;1728203;80;20985;-69
2021/07/27 08:03:36;;;;;;;10.98;7.92;;;;;;;31.75;51.84;101214.75;1730895;80;20960;-69
2021/07/27 08:06:03;;;;;;;15.63;8.63;;;;;;;31.80;50.96;101217.86;1729056;80;20937;-68
2021/07/27 08:08:32;;;;;;;16.65;8.43;;;;;;;31.84;51.05;101219.75;1727702;80;21506;-69
2021/07/27 08:11:00;;;;;;;20.20;9.00;;;;;;;31.90;51.31;101219.55;1732708;80;20940;-70
2021/07/27 08:13:28;;;;;;;13.32;8.55;;;;;;;31.89;51.39;101215.90;1703006;81;21378;-66
2021/07/27 08:15:55;;;;;;;21.85;9.10;;;;;;;31.93;51.98;101220.56;1731737;80;20870;-69
2021/07/27 08:18:22;;;;;;;20.50;7.65;;;;;;;31.98;51.95;101216.20;1733647;80;21087;-67
2021/07/27 08:20:50;;;;;;;18.60;8.15;;;;;;;32.01;51.15;101214.44;1731444;80;21877;-69
2021/07/27 08:23:17;;;;;;;19.32;8.13;;;;;;;32.08;50.09;101216.45;1726952;80;20868;-68
2021/07/27 08:25:45;;;;;;;16.05;7.85;;;;;;;32.15;49.64;101218.82;1725913;80;20993;-68
2021/07/27 08:28:12;;;;;;;15.70;7.95;;;;;;;32.18;49.34;101212.92;1726463;80;20928;-68
2021/07/27 08:30:41;;;;;;;15.40;8.10;;;;;;;32.21;49.57;101220.88;1726143;80;21314;-68
2021/07/27 08:33:08;;;;;;;14.18;8.15;;;;;;;32.24;49.81;101219.11;1723887;80;21512;-68
2021/07/27 08:35:35;;;;;;;20.45;8.43;;;;;;;32.28;49.79;101219.06;1725962;80;20913;-65
2021/07/27 08:38:02;;;;;;;12.30;8.60;;;;;;;32.34;49.96;101222.16;1721375;80;20929;-64
2021/07/27 08:40:35;;;;;;;17.30;8.35;;;;;;;32.37;49.93;101217.12;1728167;80;20881;-64
2021/07/27 08:43:03;;;;;;;14.75;8.18;;;;;;;32.40;50.05;101226.98;1726771;80;20939;-66
2021/07/27 08:45:31;;;;;;;18.57;8.40;;;;;;;32.45;49.95;101228.67;1731007;80;21093;-65
2021/07/27 08:47:58;;;;;;;18.75;8.25;;;;;;;32.49;49.79;101229.14;1733023;80;21477;-65
2021/07/27 08:50:26;;;;;;;16.97;8.00;;;;;;;32.50;50.10;101220.63;1732249;80;21437;-64
2021/07/27 08:52:53;;;;;;;15.15;8.18;;;;;;;32.52;49.97;101231.02;1708415;80;21564;-64
2021/07/27 08:55:21;;;;;;;15.48;8.65;;;;;;;32.53;49.75;101227.19;1731396;80;21303;-62
2021/07/27 08:58:22;;;;;;;22.75;8.40;;;;;;;32.50;49.62;101222.02;1729137;80;21601;-63
2021/07/27 09:00:49;;;;;;;14.38;7.67;;;;;;;32.48;50.07;101215.80;1755914;79;20953;-63
2021/07/27 09:03:18;;;;;;;22.98;7.72;;;;;;;32.49;50.24;101221.69;1774622;79;20950;-63
2021/07/27 09:05:46;;;;;;;17.07;7.58;;;;;;;32.49;49.94;101217.52;1739504;80;20953;-70
2021/07/27 09:08:16;;;;;;;13.38;7.87;;;;;;;32.52;50.13;101214.37;1744497;80;21452;-69
2021/07/27 09:10:44;;;;;;;15.10;7.42;;;;;;;32.54;50.38;101220.59;1745079;80;21545;-66
2021/07/27 09:13:17;;;;;;;17.37;8.55;;;;;;;32.53;50.31;101216.09;1745929;80;20996;-66
2021/07/27 09:15:46;;;;;;;15.03;7.67;;;;;;;32.50;50.53;101210.92;1724215;80;21439;-67
2021/07/27 09:18:15;;;;;;;15.08;8.13;;;;;;;32.48;50.60;101217.70;1744369;79;20889;-66
2021/07/27 09:20:53;;;;;;;16.00;7.37;;;;;;;32.44;49.64;101214.46;1751146;80;21405;-68
2021/07/27 09:23:23;;;;;;;10.45;7.35;;;;;;;32.38;48.97;101217.96;1751137;80;21994;-67
2021/07/27 09:25:54;;;;;;;12.90;8.05;;;;;;;32.33;49.85;101217.67;1753891;80;20948;-66
2021/07/27 09:28:22;;;;;;;14.45;7.60;;;;;;;32.28;50.53;101217.68;1748116;80;20978;-69
2021/07/27 09:30:50;;;;;;;15.78;7.67;;;;;;;32.23;51.37;101220.16;1753615;80;20918;-68
2021/07/27 09:33:17;;;;;;;15.10;8.53;;;;;;;32.22;50.81;101214.27;1749576;80;20963;-68
2021/07/27 09:35:45;;;;;;;13.72;7.47;;;;;;;32.24;51.17;101216.84;1753660;80;20880;-68
2021/07/27 09:38:17;;;;;;;14.63;8.08;;;;;;;32.18;50.88;101212.92;1753645;80;20982;-68
2021/07/27 09:41:00;;;;;;;17.73;8.85;;;;;;;32.14;51.70;101208.77;1748630;80;21622;-67
2021/07/27 09:43:27;;;;;;;12.18;8.30;;;;;;;32.11;52.14;101217.47;1753502;80;21409;-69
2021/07/27 09:46:01;;;;;;;17.17;7.80;;;;;;;32.08;52.66;101209.53;1754020;80;20923;-66
2021/07/27 09:48:29;;;;;;;15.25;7.65;;;;;;;32.03;52.69;101209.23;1750903;79;21104;-67
2021/07/27 09:50:56;;;;;;;16.02;8.13;;;;;;;31.97;52.38;101206.16;1756008;80;20900;-67
2021/07/27 09:53:23;;;;;;;14.10;7.40;;;;;;;31.92;53.06;101205.82;1756076;79;21562;-68
2021/07/27 09:55:51;;;;;;;20.70;8.10;;;;;;;31.85;53.19;101205.72;1754596;80;20864;-67
2021/07/27 09:58:19;;;;;;;16.75;8.48;;;;;;;31.85;54.10;101211.27;1755364;80;21336;-67
2021/07/27 10:01:08;;;;;;;13.95;8.50;;;;;;;31.85;54.11;101207.62;1745115;80;21141;-67
2021/07/27 10:03:39;;;;;;;13.03;8.05;;;;;;;31.85;54.22;101210.39;1751899;80;20892;-69
2021/07/27 10:06:06;;;;;;;23.73;9.43;;;;;;;31.84;54.71;101208.66;1752310;80;20915;-69
2021/07/27 10:08:34;;;;;;;14.65;7.78;;;;;;;31.79;54.99;101210.59;1750151;79;20960;-69
2021/07/27 10:11:10;;;;;;;21.45;8.73;;;;;;;31.75;55.01;101209.75;1690995;83;21315;-68
2021/07/27 10:13:45;;;;;;;14.40;8.15;;;;;;;31.71;55.16;101209.24;1751525;80;21394;-67
2021/07/27 10:16:25;;;;;;;16.10;8.10;;;;;;;31.69;55.22;101211.33;1754280;80;21462;-70
2021/07/27 10:18:52;;;;;;;19.40;9.00;;;;;;;31.67;55.29;101210.12;1753872;80;21485;-68
2021/07/27 10:21:28;;;;;;;14.05;8.05;;;;;;;31.67;55.25;101210.66;1754537;80;21490;-69
2021/07/27 10:23:57;;;;;;;14.93;8.15;;;;;;;31.63;55.42;101208.77;1748295;79;21496;-67
2021/07/27 10:26:33;;;;;;;13.22;7.87;;;;;;;31.59;55.39;101217.95;1732494;79;21864;-68
2021/07/27 10:29:00;;;;;;;10.50;7.70;;;;;;;31.53;55.37;101208.99;1694996;82;21545;-68
2021/07/27 10:31:42;;;;;;;11.75;7.72;;;;;;;31.51;55.49;101206.08;1749045;79;20931;-68
2021/07/27 10:34:10;;;;;;;14.93;8.05;;;;;;;31.45;54.96;101209.05;1745074;79;20900;-68
2021/07/27 10:36:47;;;;;;;16.23;8.78;;;;;;;31.39;55.27;101207.86;1748918;79;20900;-68
2021/07/27 10:39:18;;;;;;;16.17;8.78;;;;;;;31.36;55.94;101206.84;1747963;79;21297;-68
2021/07/27 10:41:51;;;;;;;14.45;7.70;;;;;;;31.35;56.22;101195.92;1751236;80;20888;-70
2021/07/27 10:44:23;;;;;;;12.43;7.77;;;;;;;31.34;56.88;101206.66;1745803;79;20930;-67
2021/07/27 10:46:51;;;;;;;18.65;8.88;;;;;;;31.30;57.48;101203.41;1744051;79;21423;-68
2021/07/27 10:49:24;;;;;;;12.80;8.50;;;;;;;31.26;57.49;101202.02;1744381;79;20940;-69
2021/07/27 10:51:53;;;;;;;14.90;8.58;;;;;;;31.19;57.87;101207.92;1747668;80;21465;-68
2021/07/27 10:54:28;;;;;;;22.07;8.23;;;;;;;31.10;58.27;101205.19;1746608;79;20959;-68
2021/07/27 10:57:05;;;;;;;18.17;8.68;;;;;;;31.08;58.41;101198.09;1750735;79;20873;-68
2021/07/27 10:59:43;;;;;;;27.80;9.20;;;;;;;31.03;58.56;101200.00;1743190;79;20939;-68
2021/07/27 11:02:12;;;;;;;18.95;9.13;;;;;;;31.02;59.16;101202.44;1747887;79;20908;-70
2021/07/27 11:04:41;;;;;;;16.02;8.50;;;;;;;31.00;58.70;101201.75;1730995;79;21547;-68
2021/07/27 11:07:16;;;;;;;17.80;8.53;;;;;;;31.00;59.06;101196.22;1748507;79;20949;-68
2021/07/27 11:09:54;;;;;;;17.73;9.53;;;;;;;31.03;59.49;101200.00;1753938;79;21512;-68
2021/07/27 11:12:39;;;;;;;17.42;8.90;;;;;;;31.02;59.57;101189.98;1744483;79;21291;-67
2021/07/27 11:15:19;;;;;;;16.65;8.43;;;;;;;30.92;59.06;101185.18;1743852;79;20989;-67
2021/07/27 11:18:02;;;;;;;15.18;8.25;;;;;;;30.86;58.90;101191.78;1741019;79;21880;-66
2021/07/27 11:20:38;;;;;;;13.60;8.40;;;;;;;30.82;59.47;101191.77;1743605;79;20928;-66
2021/07/27 11:23:13;;;;;;;14.10;7.55;;;;;;;30.76;59.36;101189.72;1723328;80;21544;-68
2021/07/27 11:25:41;;;;;;;15.88;8.13;;;;;;;30.73;59.97;101194.22;1741658;79;20936;-67
2021/07/27 11:28:15;;;;;;;15.88;8.15;;;;;;;30.74;59.68;101193.19;1743989;79;20923;-69
2021/07/27 11:30:42;;;;;;;20.48;8.73;;;;;;;30.76;58.89;101192.48;1747735;79;21087;-66
2021/07/27 11:33:22;;;;;;;15.45;8.40;;;;;;;30.76;58.46;101191.64;1748765;79;20971;-69
2021/07/27 11:35:54;;;;;;;12.93;7.55;;;;;;;30.75;58.50;101186.61;1744382;79;21477;-72
2021/07/27 11:38:29;;;;;;;12.53;8.15;;;;;;;30.74;57.60;101186.27;1746278;79;20928;-67
2021/07/27 11:41:06;;;;;;;14.65;8.00;;;;;;;30.70;58.38;101183.52;1744503;79;21956;-70
2021/07/27 11:43:36;;;;;;;19.00;7.65;;;;;;;30.66;58.90;101181.61;1747039;79;21767;-69
2021/07/27 11:46:16;;;;;;;15.00;7.70;;;;;;;30.62;58.99;101188.55;1751582;79;20960;-68
2021/07/27 11:48:43;;;;;;;16.95;7.87;;;;;;;30.58;59.34;101178.30;1748893;80;20896;-68